Time;durP1;ratioP1;P1;durP2;ratioP2;P2;SDS_P1;SDS_P2;PMS_P1;PMS_P2;Temp;Humidity;BMP_temperature;BMP_pressure;BME280_temperature;BME280_humidity;BME280_pressure;Samples;Min_cycle;Max_cycle;Signal;HPM_P1;HPM_P2
2021/03/12 00:00:51;;;;;;;2.70;0.70;;;6.60;92.80;;;;;;5028092;28;20432;-71
2021/03/12 00:03:20;;;;;;;2.23;1.00;;;6.70;92.50;;;;;;5028222;28;20451;-71
2021/03/12 00:05:49;;;;;;;3.97;1.13;;;6.70;92.30;;;;;;5025379;28;20463;-70
2021/03/12 00:08:15;;;;;;;2.27;1.00;;;6.80;91.80;;;;;;5028836;28;20605;-71
2021/03/12 00:10:42;;;;;;;3.53;1.13;;;6.90;91.40;;;;;;5032606;28;20428;-73
2021/03/12 00:13:08;;;;;;;2.23;0.93;;;6.90;91.40;;;;;;5030019;28;20586;-73
2021/03/12 00:15:35;;;;;;;2.57;1.13;;;6.90;91.50;;;;;;5028782;28;20872;-73
2021/03/12 00:18:01;;;;;;;2.40;1.10;;;6.90;91.30;;;;;;5033278;28;20427;-74
2021/03/12 00:20:38;;;;;;;7.33;1.13;;;7.00;90.80;;;;;;5034885;28;20938;-75
2021/03/12 00:23:05;;;;;;;5.30;1.87;;;7.10;90.70;;;;;;5048752;28;20295;-74
2021/03/12 00:25:44;;;;;;;2.13;0.70;;;7.20;89.90;;;;;;5049073;28;20470;-71
2021/03/12 00:28:11;;;;;;;4.57;1.47;;;7.20;88.40;;;;;;5043544;28;20515;-73
2021/03/12 00:30:37;;;;;;;3.73;0.97;;;7.30;87.70;;;;;;5030461;28;20420;-73
2021/03/12 00:33:04;;;;;;;1.33;0.77;;;7.40;86.60;;;;;;5030371;28;20539;-72
2021/03/12 00:35:34;;;;;;;3.83;0.90;;;7.40;86.60;;;;;;5019324;28;20520;-72
2021/03/12 00:38:00;;;;;;;2.47;0.90;;;7.40;86.20;;;;;;5029824;28;20800;-72
2021/03/12 00:40:30;;;;;;;3.33;1.57;;;7.50;86.20;;;;;;5030949;28;20514;-73
2021/03/12 00:42:57;;;;;;;1.30;0.80;;;7.60;86.00;;;;;;5032881;28;20687;-71
2021/03/12 00:45:24;;;;;;;2.40;1.30;;;7.60;85.90;;;;;;5036658;28;20518;-71
2021/03/12 00:47:50;;;;;;;3.67;1.40;;;7.60;85.50;;;;;;5032375;28;20530;-72
2021/03/12 00:50:31;;;;;;;2.50;1.00;;;7.60;83.80;;;;;;5033978;28;20550;-72
2021/03/12 00:52:56;;;;;;;7.40;1.37;;;7.60;83.10;;;;;;5032105;28;20451;-73
2021/03/12 00:55:22;;;;;;;1.20;0.80;;;7.70;83.00;;;;;;5033423;28;20420;-70
2021/03/12 00:57:48;;;;;;;3.13;1.07;;;7.70;82.40;;;;;;5043770;28;20246;-71
2021/03/12 01:00:15;;;;;;;3.47;0.97;;;7.70;82.70;;;;;;5053689;28;20702;-71
2021/03/12 01:02:40;;;;;;;2.93;1.33;;;7.70;82.70;;;;;;5051294;28;20294;-73
2021/03/12 01:05:07;;;;;;;8.63;1.30;;;7.80;81.90;;;;;;5052260;28;20545;-71
2021/03/12 01:07:33;;;;;;;2.60;1.30;;;7.80;81.50;;;;;;5052376;28;20539;-72
2021/03/12 01:09:58;;;;;;;4.20;1.20;;;7.80;81.40;;;;;;5052590;28;20426;-73
2021/03/12 01:12:24;;;;;;;4.60;1.43;;;7.90;80.20;;;;;;5052616;28;20443;-70
2021/03/12 01:14:50;;;;;;;3.37;1.10;;;7.90;80.50;;;;;;5051984;28;20185;-73
2021/03/12 01:17:16;;;;;;;4.90;1.20;;;7.80;80.30;;;;;;5052052;28;20181;-72
2021/03/12 01:19:41;;;;;;;5.17;1.30;;;7.90;80.50;;;;;;5052743;28;20239;-71
2021/03/12 01:22:07;;;;;;;2.33;1.20;;;7.90;80.00;;;;;;5051316;28;20772;-72
2021/03/12 01:24:33;;;;;;;11.17;1.47;;;7.80;79.70;;;;;;5052203;28;20192;-73
2021/03/12 01:27:00;;;;;;;2.30;1.10;;;7.80;79.20;;;;;;5050766;28;20467;-73
2021/03/12 01:29:26;;;;;;;4.40;1.23;;;7.80;78.40;;;;;;5035651;28;20192;-73
2021/03/12 01:31:52;;;;;;;3.33;1.30;;;7.90;78.90;;;;;;5032509;28;20499;-72
2021/03/12 01:34:18;;;;;;;3.10;1.20;;;7.90;76.40;;;;;;5032504;28;20507;-71
2021/03/12 01:36:44;;;;;;;1.70;1.00;;;8.00;74.50;;;;;;5022824;28;20416;-71
2021/03/12 01:39:10;;;;;;;3.37;1.00;;;8.00;73.50;;;;;;5034390;28;20465;-71
2021/03/12 01:41:36;;;;;;;2.77;1.40;;;8.00;73.60;;;;;;5031972;28;20286;-73
2021/03/12 01:44:03;;;;;;;2.90;1.10;;;8.00;73.70;;;;;;5031826;28;20458;-73
2021/03/12 01:46:29;;;;;;;6.70;1.40;;;7.90;74.30;;;;;;5030081;28;20275;-72
2021/03/12 01:48:55;;;;;;;5.27;1.23;;;8.00;74.20;;;;;;5046932;28;20450;-71
2021/03/12 01:51:21;;;;;;;2.00;1.10;;;8.00;74.50;;;;;;5052185;28;20712;-71
2021/03/12 01:53:46;;;;;;;3.57;1.00;;;8.00;73.90;;;;;;5052005;28;20211;-71
2021/03/12 01:56:13;;;;;;;2.17;1.00;;;8.00;75.20;;;;;;5052786;28;20426;-71
2021/03/12 01:58:38;;;;;;;1.80;1.10;;;8.00;76.50;;;;;;5052464;28;20286;-72
2021/03/12 02:01:05;;;;;;;2.80;1.27;;;7.90;77.10;;;;;;5053691;28;20431;-72
2021/03/12 02:03:33;;;;;;;3.00;1.07;;;7.80;78.10;;;;;;5052177;28;20501;-71
2021/03/12 02:05:58;;;;;;;1.73;1.03;;;7.70;78.90;;;;;;5030223;28;20832;-71
2021/03/12 02:08:24;;;;;;;6.20;1.83;;;7.50;79.20;;;;;;5034537;28;20427;-72
2021/03/12 02:10:51;;;;;;;2.73;1.47;;;7.40;79.60;;;;;;5052029;28;20184;-71
2021/03/12 02:13:45;;;;;;;2.83;1.30;;;7.40;80.30;;;;;;5051751;28;20346;-71
2021/03/12 02:16:48;;;;;;;2.17;1.20;;;7.40;80.50;;;;;;5049489;28;20431;-71
2021/03/12 02:19:32;;;;;;;2.00;1.10;;;7.30;79.70;;;;;;5039207;28;20430;-71
2021/03/12 02:21:59;;;;;;;4.80;1.20;;;7.20;79.30;;;;;;5019386;28;20427;-70
2021/03/12 02:24:39;;;;;;;3.10;1.20;;;7.20;80.30;;;;;;5031268;28;20459;-71
2021/03/12 02:27:04;;;;;;;1.70;1.10;;;7.20;80.50;;;;;;5031760;28;20494;-71
2021/03/12 02:29:33;;;;;;;5.87;1.30;;;7.10;80.90;;;;;;5031134;28;20451;-71
2021/03/12 02:32:01;;;;;;;1.93;1.07;;;7.10;80.90;;;;;;5033000;28;20551;-70
2021/03/12 02:34:34;;;;;;;2.57;1.47;;;7.00;81.20;;;;;;5030992;28;20452;-71
2021/03/12 02:37:01;;;;;;;2.50;1.23;;;7.00;81.40;;;;;;5024273;28;20432;-71
2021/03/12 02:39:31;;;;;;;3.07;1.20;;;7.00;81.10;;;;;;5031116;28;20444;-72
2021/03/12 02:42:00;;;;;;;2.67;1.20;;;7.00;80.90;;;;;;5032228;28;20423;-71
2021/03/12 02:44:28;;;;;;;1.90;1.23;;;6.90;80.90;;;;;;5031036;28;20953;-73
2021/03/12 02:46:58;;;;;;;1.83;0.80;;;6.90;80.30;;;;;;5031318;28;21188;-71
2021/03/12 02:49:28;;;;;;;3.80;1.10;;;7.00;80.00;;;;;;5032035;28;20843;-72
2021/03/12 02:51:55;;;;;;;5.93;1.27;;;6.90;80.00;;;;;;5032367;28;20428;-70
2021/03/12 02:54:22;;;;;;;4.63;1.60;;;6.90;79.30;;;;;;5031194;28;20420;-70
2021/03/12 02:56:48;;;;;;;4.50;1.30;;;6.90;79.30;;;;;;5031236;28;20927;-70
2021/03/12 02:59:17;;;;;;;4.70;2.00;;;6.90;78.90;;;;;;5031068;28;20937;-73
2021/03/12 03:01:47;;;;;;;1.93;1.20;;;6.90;78.90;;;;;;5031103;28;20428;-72
2021/03/12 03:04:14;;;;;;;2.60;1.10;;;6.80;79.50;;;;;;5030382;28;20427;-75
2021/03/12 03:06:40;;;;;;;1.60;0.97;;;6.90;79.20;;;;;;5028446;28;20554;-71
2021/03/12 03:09:06;;;;;;;1.57;1.03;;;6.90;77.70;;;;;;5030890;28;20493;-71
2021/03/12 03:11:35;;;;;;;3.07;1.83;;;6.90;78.10;;;;;;5030790;28;20424;-72
2021/03/12 03:14:01;;;;;;;1.87;1.20;;;6.80;78.70;;;;;;5029207;28;20522;-72
2021/03/12 03:16:34;;;;;;;2.77;0.93;;;6.80;79.50;;;;;;5045448;28;20957;-72
2021/03/12 03:19:02;;;;;;;5.47;1.20;;;6.80;79.90;;;;;;5049180;28;20462;-70
2021/03/12 03:21:30;;;;;;;11.10;1.60;;;6.80;80.30;;;;;;5050518;28;21214;-72
2021/03/12 03:23:56;;;;;;;2.97;1.30;;;6.80;80.50;;;;;;5050274;28;20858;-72
2021/03/12 03:26:22;;;;;;;3.63;1.20;;;6.80;80.50;;;;;;5049004;28;20466;-71
2021/03/12 03:28:52;;;;;;;3.37;1.00;;;6.80;80.60;;;;;;5038611;28;20486;-73
2021/03/12 03:31:19;;;;;;;2.57;1.27;;;6.80;80.60;;;;;;5029300;28;20978;-71
2021/03/12 03:33:45;;;;;;;3.43;1.23;;;6.80;80.30;;;;;;5030736;28;20436;-72
2021/03/12 03:36:11;;;;;;;7.53;1.50;;;6.80;80.00;;;;;;5022370;28;20439;-73
2021/03/12 03:38:37;;;;;;;6.00;1.33;;;6.80;79.00;;;;;;5050705;28;20184;-72
2021/03/12 03:41:05;;;;;;;3.60;1.33;;;6.80;79.20;;;;;;5048962;28;20530;-71
2021/03/12 03:43:33;;;;;;;1.97;1.47;;;6.80;76.50;;;;;;5048693;28;20265;-73
2021/03/12 03:46:02;;;;;;;4.20;1.20;;;6.90;75.20;;;;;;5047568;28;20570;-70
2021/03/12 03:48:29;;;;;;;1.73;1.10;;;6.90;74.80;;;;;;5049267;28;20435;-71
2021/03/12 03:50:56;;;;;;;3.47;1.10;;;7.00;74.30;;;;;;5050016;28;20475;-72
2021/03/12 03:53:22;;;;;;;3.57;1.00;;;7.00;74.80;;;;;;5051898;28;20454;-73
2021/03/12 03:55:49;;;;;;;1.67;1.00;;;7.00;74.90;;;;;;5053640;28;20427;-74
2021/03/12 03:58:16;;;;;;;3.63;1.13;;;7.00;74.80;;;;;;5053016;28;20483;-69
2021/03/12 04:00:43;;;;;;;1.70;1.00;;;6.90;72.90;;;;;;5043535;28;20467;-71
2021/03/12 04:03:09;;;;;;;2.40;1.10;;;6.90;72.00;;;;;;5033619;28;20459;-72
2021/03/12 04:05:37;;;;;;;3.83;1.57;;;6.90;71.30;;;;;;5047406;28;20423;-71
2021/03/12 04:08:03;;;;;;;4.43;1.40;;;6.90;69.90;;;;;;5052179;28;20423;-73
2021/03/12 04:10:29;;;;;;;2.97;0.90;;;6.90;69.50;;;;;;5044572;28;20509;-73
2021/03/12 04:12:55;;;;;;;5.10;1.23;;;6.90;69.20;;;;;;5028726;28;20451;-73
2021/03/12 04:15:22;;;;;;;6.00;1.20;;;6.90;69.40;;;;;;5035429;28;20946;-71
2021/03/12 04:17:49;;;;;;;2.43;1.13;;;6.90;68.60;;;;;;5040785;28;20457;-71
2021/03/12 04:20:15;;;;;;;6.57;1.30;;;6.90;68.30;;;;;;5034159;28;20434;-72
2021/03/12 04:22:42;;;;;;;2.90;1.33;;;6.90;67.90;;;;;;5046226;28;20448;-73
2021/03/12 04:25:08;;;;;;;6.13;1.47;;;7.00;67.60;;;;;;5052487;28;20484;-73
2021/03/12 04:27:35;;;;;;;4.80;2.10;;;7.00;67.70;;;;;;5054025;28;20471;-70
2021/03/12 04:30:04;;;;;;;6.50;1.30;;;7.00;66.90;;;;;;5034334;28;20855;-72
2021/03/12 04:32:30;;;;;;;5.10;1.50;;;7.00;66.30;;;;;;5032871;28;20492;-71
2021/03/12 04:34:55;;;;;;;3.67;1.60;;;7.00;66.40;;;;;;5027836;28;20425;-72
2021/03/12 04:37:23;;;;;;;2.50;1.30;;;6.90;65.60;;;;;;5027102;28;20446;-71
2021/03/12 04:39:50;;;;;;;5.00;1.57;;;7.00;65.80;;;;;;5033417;28;20420;-70
2021/03/12 04:42:17;;;;;;;2.63;1.40;;;6.90;66.00;;;;;;5033174;28;20795;-70
2021/03/12 04:44:43;;;;;;;3.17;1.10;;;6.90;66.60;;;;;;5032688;28;20992;-72
2021/03/12 04:47:09;;;;;;;3.60;1.40;;;6.90;66.10;;;;;;5047279;28;20924;-73
2021/03/12 04:49:35;;;;;;;2.73;1.40;;;6.90;66.10;;;;;;5052535;28;20449;-72
2021/03/12 04:52:01;;;;;;;6.10;1.80;;;7.00;65.70;;;;;;5051744;28;20429;-72
2021/03/12 04:54:28;;;;;;;5.43;1.50;;;6.90;66.00;;;;;;5053229;28;20419;-72
2021/03/12 04:56:55;;;;;;;3.20;1.00;;;6.90;66.00;;;;;;5052127;28;20418;-71
2021/03/12 04:59:21;;;;;;;7.00;1.93;;;6.90;65.70;;;;;;5032589;28;20864;-77
2021/03/12 05:01:48;;;;;;;3.47;1.23;;;7.00;65.70;;;;;;5032750;28;20442;-71
2021/03/12 05:04:14;;;;;;;10.30;1.67;;;6.90;65.80;;;;;;5031681;28;20964;-73
2021/03/12 05:06:45;;;;;;;3.40;1.23;;;6.90;66.00;;;;;;5033494;28;20466;-73
2021/03/12 05:09:12;;;;;;;3.23;1.23;;;6.90;65.80;;;;;;5034786;28;20438;-71
2021/03/12 05:11:42;;;;;;;4.23;1.20;;;6.80;65.40;;;;;;5033060;28;20522;-72
2021/03/12 05:14:09;;;;;;;3.40;1.53;;;6.80;65.70;;;;;;5032573;28;20439;-72
2021/03/12 05:16:35;;;;;;;7.17;1.53;;;6.80;66.10;;;;;;5032596;28;20455;-72
2021/03/12 05:19:01;;;;;;;5.33;1.70;;;6.80;66.30;;;;;;5033017;28;20509;-70
2021/03/12 05:21:27;;;;;;;9.70;1.43;;;6.80;66.60;;;;;;5031519;28;20201;-73
2021/03/12 05:23:53;;;;;;;4.90;1.20;;;6.80;66.10;;;;;;5031650;28;20455;-71
2021/03/12 05:26:19;;;;;;;5.00;1.97;;;6.80;66.70;;;;;;5031630;28;20656;-73
2021/03/12 05:28:45;;;;;;;3.30;1.20;;;6.90;66.70;;;;;;5031882;28;20526;-71
2021/03/12 05:31:11;;;;;;;4.73;1.67;;;6.80;66.10;;;;;;5032960;28;20683;-72
2021/03/12 05:33:36;;;;;;;3.93;1.30;;;6.80;66.60;;;;;;5032919;28;20578;-72
2021/03/12 05:36:03;;;;;;;1.90;1.13;;;6.70;67.20;;;;;;5021176;28;20721;-71
2021/03/12 05:38:28;;;;;;;2.50;1.07;;;6.80;67.50;;;;;;5052748;28;20541;-71
2021/03/12 05:40:54;;;;;;;3.93;1.30;;;6.70;67.50;;;;;;5052367;28;20435;-72
2021/03/12 05:43:20;;;;;;;4.47;1.03;;;6.70;68.00;;;;;;5051166;28;20695;-72
2021/03/12 05:45:46;;;;;;;6.20;2.83;;;6.70;68.20;;;;;;5050044;28;20474;-74
2021/03/12 05:48:13;;;;;;;9.00;1.83;;;6.70;68.80;;;;;;5052590;28;20979;-72
2021/03/12 05:50:39;;;;;;;3.73;1.33;;;6.70;68.50;;;;;;5052605;28;20437;-73
2021/03/12 05:53:05;;;;;;;7.47;1.30;;;6.80;68.80;;;;;;5043700;28;20527;-71
2021/03/12 05:55:31;;;;;;;6.83;1.33;;;6.70;69.20;;;;;;5032047;28;20491;-72
2021/03/12 05:57:58;;;;;;;4.27;1.37;;;6.70;69.50;;;;;;5033018;28;20482;-72
2021/03/12 06:00:25;;;;;;;6.37;1.50;;;6.70;69.80;;;;;;5034947;28;20432;-73
2021/03/12 06:02:51;;;;;;;3.13;1.40;;;6.70;69.70;;;;;;5053217;28;20852;-73
2021/03/12 06:05:17;;;;;;;4.57;1.20;;;6.70;69.80;;;;;;5051702;28;20569;-71
2021/03/12 06:07:43;;;;;;;6.40;1.20;;;6.60;70.10;;;;;;5053140;28;20208;-72
2021/03/12 06:10:09;;;;;;;4.63;1.67;;;6.60;70.80;;;;;;5052868;28;20188;-72
2021/03/12 06:12:35;;;;;;;5.60;1.40;;;6.60;70.80;;;;;;5053462;28;20209;-72
2021/03/12 06:15:06;;;;;;;7.33;1.70;;;6.50;71.00;;;;;;5052441;28;20561;-73
2021/03/12 06:17:36;;;;;;;2.50;1.60;;;6.50;71.30;;;;;;5052313;28;20564;-71
2021/03/12 06:20:24;;;;;;;2.30;1.30;;;6.50;71.60;;;;;;5055359;28;20439;-72
2021/03/12 06:22:58;;;;;;;3.03;1.73;;;6.50;71.80;;;;;;5054546;28;21398;-72
2021/03/12 06:25:30;;;;;;;4.20;1.40;;;6.50;71.80;;;;;;5056354;28;20421;-73
2021/03/12 06:27:56;;;;;;;4.10;1.30;;;6.50;72.10;;;;;;5048729;28;20919;-71
2021/03/12 06:30:23;;;;;;;6.33;1.50;;;6.60;72.40;;;;;;5031696;28;20427;-72
2021/03/12 06:32:55;;;;;;;5.03;1.10;;;6.50;72.70;;;;;;5032435;28;20451;-73
2021/03/12 06:35:25;;;;;;;7.37;2.00;;;6.50;73.00;;;;;;5021386;28;20519;-73
2021/03/12 06:37:52;;;;;;;3.40;1.30;;;6.50;73.50;;;;;;5030950;28;20423;-71
2021/03/12 06:40:18;;;;;;;3.67;1.40;;;6.40;74.00;;;;;;5032677;28;20427;-71
2021/03/12 06:43:06;;;;;;;3.47;1.17;;;6.50;74.30;;;;;;5031510;28;20474;-72
2021/03/12 06:45:41;;;;;;;5.17;1.50;;;6.40;75.10;;;;;;5030822;28;20678;-71
2021/03/12 06:48:23;;;;;;;10.50;1.73;;;6.50;75.20;;;;;;5031833;28;20411;-73
2021/03/12 06:50:56;;;;;;;3.90;1.33;;;6.50;75.20;;;;;;5049263;28;20435;-72
2021/03/12 06:53:42;;;;;;;5.90;1.50;;;6.50;75.40;;;;;;5052123;28;20497;-73
2021/03/12 06:56:14;;;;;;;3.03;1.80;;;6.50;75.50;;;;;;5051127;28;20873;-73
2021/03/12 06:59:00;;;;;;;4.67;1.50;;;6.50;75.50;;;;;;5051546;28;20429;-74
2021/03/12 07:01:26;;;;;;;4.87;1.33;;;6.60;75.70;;;;;;5050099;28;20423;-73
2021/03/12 07:04:12;;;;;;;3.73;1.37;;;6.60;75.50;;;;;;5045382;28;20456;-73
2021/03/12 07:06:50;;;;;;;4.50;1.20;;;6.60;75.20;;;;;;5031293;28;20478;-73
2021/03/12 07:09:20;;;;;;;3.73;1.43;;;6.50;75.70;;;;;;5032283;28;21138;-72
2021/03/12 07:12:02;;;;;;;6.40;1.20;;;6.50;76.70;;;;;;5032899;28;20860;-72
2021/03/12 07:14:30;;;;;;;3.50;1.37;;;6.40;77.70;;;;;;5032129;28;20585;-71
2021/03/12 07:17:00;;;;;;;5.90;1.50;;;6.30;78.90;;;;;;5032461;28;20435;-71
2021/03/12 07:19:26;;;;;;;2.50;1.30;;;6.30;79.60;;;;;;5032291;28;20431;-72
2021/03/12 07:21:57;;;;;;;8.03;1.33;;;6.30;80.00;;;;;;5033089;28;20424;-73
2021/03/12 07:24:24;;;;;;;3.60;1.30;;;6.40;80.30;;;;;;5032342;28;20424;-72
2021/03/12 07:26:54;;;;;;;6.63;1.40;;;6.50;80.00;;;;;;5033726;28;21126;-70
2021/03/12 07:29:23;;;;;;;11.27;1.70;;;6.50;79.90;;;;;;5034204;28;21086;-71
2021/03/12 07:31:54;;;;;;;3.33;1.20;;;6.60;79.90;;;;;;5033951;28;20424;-70
2021/03/12 07:34:25;;;;;;;13.13;1.87;;;6.70;79.30;;;;;;5034829;28;20427;-71
2021/03/12 07:36:54;;;;;;;3.83;1.10;;;6.80;78.30;;;;;;5033059;28;20446;-71
2021/03/12 07:39:24;;;;;;;4.37;1.30;;;6.90;78.00;;;;;;5034511;28;20434;-72
2021/03/12 07:41:55;;;;;;;3.73;1.10;;;6.90;77.30;;;;;;5034580;28;20439;-73
2021/03/12 07:44:22;;;;;;;2.40;1.10;;;7.00;76.80;;;;;;5049007;28;20506;-71
2021/03/12 07:46:51;;;;;;;2.23;1.10;;;7.00;78.10;;;;;;5039387;28;20475;-74
2021/03/12 07:49:44;;;;;;;3.70;1.30;;;7.00;79.70;;;;;;5033450;28;20883;-73
2021/03/12 07:52:10;;;;;;;2.03;1.07;;;7.10;79.60;;;;;;5030615;28;20782;-72
2021/03/12 07:54:39;;;;;;;4.20;1.20;;;7.10;79.50;;;;;;5034268;28;20431;-74
2021/03/12 07:57:09;;;;;;;2.80;1.53;;;7.10;78.60;;;;;;5032199;28;20930;-74
2021/03/12 07:59:46;;;;;;;2.40;1.30;;;7.20;78.00;;;;;;5033592;28;20431;-76
2021/03/12 08:02:13;;;;;;;1.53;1.07;;;7.10;78.70;;;;;;5034428;28;20427;-76
2021/03/12 08:04:39;;;;;;;5.07;0.97;;;7.10;79.30;;;;;;5041983;28;20424;-77
2021/03/12 08:07:20;;;;;;;3.90;1.17;;;7.00;80.20;;;;;;5050866;28;20472;-76
2021/03/12 08:09:50;;;;;;;2.30;1.00;;;7.00;80.80;;;;;;5051007;28;20427;-75
2021/03/12 08:12:33;;;;;;;2.50;1.20;;;7.00;79.50;;;;;;5058328;28;20963;-76
2021/03/12 08:15:15;;;;;;;9.87;1.33;;;6.90;79.70;;;;;;5034641;28;20550;-75
2021/03/12 08:17:42;;;;;;;2.40;1.20;;;7.00;79.60;;;;;;5030575;28;20431;-74
2021/03/12 08:20:28;;;;;;;7.70;2.13;;;7.10;79.70;;;;;;5027084;28;20431;-76
2021/03/12 08:22:58;;;;;;;3.50;2.17;;;7.10;80.00;;;;;;5024800;28;20890;-76
2021/03/12 08:25:36;;;;;;;4.87;1.70;;;7.20;80.30;;;;;;5028914;28;20434;-74
2021/03/12 08:28:26;;;;;;;2.63;1.60;;;7.20;79.00;;;;;;5029602;28;20601;-76
2021/03/12 08:30:56;;;;;;;6.70;1.53;;;7.40;79.00;;;;;;5030765;28;20412;-76
2021/03/12 08:33:21;;;;;;;2.57;1.60;;;7.70;77.80;;;;;;5030787;28;20435;-75
2021/03/12 08:35:50;;;;;;;4.33;1.50;;;8.10;77.00;;;;;;5028495;28;20416;-76
2021/03/12 08:38:25;;;;;;;2.67;1.03;;;8.20;72.70;;;;;;5030144;28;20185;-76
2021/03/12 08:41:00;;;;;;;5.40;1.93;;;8.30;70.70;;;;;;5030807;28;20432;-74
2021/03/12 08:43:28;;;;;;;3.30;1.20;;;8.30;70.40;;;;;;5029028;28;20534;-71
2021/03/12 08:46:04;;;;;;;3.57;1.20;;;8.20;70.20;;;;;;5028444;28;20459;-73
2021/03/12 08:48:30;;;;;;;3.70;1.50;;;8.10;70.20;;;;;;5029622;28;20469;-72
2021/03/12 08:51:06;;;;;;;2.70;1.47;;;8.10;69.50;;;;;;5029385;28;20435;-73
2021/03/12 08:53:44;;;;;;;7.30;1.87;;;8.10;69.20;;;;;;5028341;28;20530;-73
2021/03/12 08:56:10;;;;;;;5.60;1.43;;;8.10;70.10;;;;;;5028072;28;20938;-70
2021/03/12 08:58:38;;;;;;;6.50;1.47;;;8.00;69.20;;;;;;5029722;28;20451;-71
2021/03/12 09:01:13;;;;;;;2.93;1.13;;;8.00;68.90;;;;;;5028669;28;20434;-71
2021/03/12 09:03:41;;;;;;;4.23;1.30;;;8.10;68.50;;;;;;5030409;28;20826;-74
2021/03/12 09:06:10;;;;;;;2.63;1.30;;;8.20;67.50;;;;;;5032250;28;20566;-72
2021/03/12 09:08:38;;;;;;;1.40;1.03;;;8.30;66.30;;;;;;5033254;28;20419;-70
2021/03/12 09:11:10;;;;;;;4.10;1.10;;;8.40;65.10;;;;;;5033545;28;20423;-73
2021/03/12 09:13:38;;;;;;;4.47;1.40;;;8.40;64.20;;;;;;5054297;28;20545;-71
2021/03/12 09:16:05;;;;;;;2.00;0.97;;;8.50;64.80;;;;;;5053447;28;20427;-72
2021/03/12 09:18:34;;;;;;;6.07;1.50;;;8.60;61.50;;;;;;5051719;28;20427;-72
2021/03/12 09:21:05;;;;;;;4.03;1.57;;;8.60;60.10;;;;;;5052949;28;20906;-70
2021/03/12 09:23:48;;;;;;;5.93;1.33;;;8.60;60.00;;;;;;5053289;28;20443;-72
2021/03/12 09:26:19;;;;;;;1.70;1.27;;;8.60;60.30;;;;;;5050703;28;20474;-71
2021/03/12 09:28:47;;;;;;;6.70;1.90;;;8.50;60.70;;;;;;5042774;28;20420;-73
2021/03/12 09:31:15;;;;;;;9.23;1.60;;;8.60;61.50;;;;;;5033127;28;21015;-71
2021/03/12 09:33:42;;;;;;;2.63;1.20;;;8.80;61.30;;;;;;5032808;28;20463;-73
2021/03/12 09:36:29;;;;;;;3.03;1.33;;;8.90;60.30;;;;;;5024402;28;20443;-73
2021/03/12 09:39:03;;;;;;;3.20;0.97;;;8.90;60.60;;;;;;5052680;28;20419;-72
2021/03/12 09:41:28;;;;;;;2.97;1.13;;;9.00;59.90;;;;;;5053095;28;20442;-73
2021/03/12 09:44:13;;;;;;;4.00;1.10;;;8.90;60.10;;;;;;5052805;28;20442;-74
2021/03/12 09:46:50;;;;;;;1.27;0.90;;;8.90;59.90;;;;;;5051622;28;20467;-73
2021/03/12 09:49:22;;;;;;;5.43;1.30;;;8.80;60.10;;;;;;5053289;28;20449;-72
2021/03/12 09:51:52;;;;;;;5.53;1.07;;;8.70;60.40;;;;;;5053309;28;20419;-72
2021/03/12 09:54:18;;;;;;;6.83;1.40;;;8.70;60.10;;;;;;5052113;28;20435;-72
2021/03/12 09:56:49;;;;;;;3.20;1.10;;;8.80;60.40;;;;;;5052592;28;20510;-72
2021/03/12 09:59:24;;;;;;;3.27;1.00;;;8.90;60.60;;;;;;5051289;28;20438;-72
2021/03/12 10:01:50;;;;;;;8.37;1.37;;;8.90;60.90;;;;;;5050586;28;20465;-70
2021/03/12 10:04:29;;;;;;;2.10;1.00;;;8.80;60.90;;;;;;5030802;28;20459;-70
2021/03/12 10:07:02;;;;;;;2.80;1.00;;;8.80;61.30;;;;;;5032124;28;21004;-72
2021/03/12 10:09:29;;;;;;;5.53;0.90;;;8.90;61.30;;;;;;5032578;28;20435;-71
2021/03/12 10:11:56;;;;;;;2.40;0.90;;;8.90;60.90;;;;;;5032716;28;20428;-71
2021/03/12 10:14:28;;;;;;;4.83;1.10;;;8.80;61.70;;;;;;5030319;28;20926;-71
2021/03/12 10:17:06;;;;;;;1.93;1.10;;;8.80;62.80;;;;;;5032383;28;20434;-72
2021/03/12 10:19:42;;;;;;;4.00;1.20;;;9.00;62.30;;;;;;5032589;28;20439;-71
2021/03/12 10:22:27;;;;;;;1.87;0.97;;;9.20;61.70;;;;;;5032633;28;20442;-71
2021/03/12 10:25:19;;;;;;;3.73;1.00;;;9.20;61.20;;;;;;5030042;28;20538;-70
2021/03/12 10:27:56;;;;;;;6.53;1.00;;;9.30;61.60;;;;;;5034984;28;20467;-71
2021/03/12 10:30:31;;;;;;;4.23;1.03;;;9.30;61.20;;;;;;5034665;28;20485;-72
2021/03/12 10:33:03;;;;;;;2.73;1.10;;;9.10;63.10;;;;;;5033148;28;20451;-71
2021/03/12 10:35:31;;;;;;;1.57;0.93;;;9.00;64.20;;;;;;5021935;28;20440;-71
2021/03/12 10:38:14;;;;;;;4.13;1.47;;;9.00;65.80;;;;;;5030719;28;20505;-70
2021/03/12 10:40:42;;;;;;;3.57;1.27;;;9.10;67.20;;;;;;5032421;28;20474;-69
2021/03/12 10:43:13;;;;;;;6.80;1.33;;;9.20;67.30;;;;;;5050345;28;20455;-70
2021/03/12 10:45:45;;;;;;;3.33;1.10;;;9.30;67.70;;;;;;5050291;28;20893;-69
2021/03/12 10:48:11;;;;;;;3.03;0.83;;;9.60;68.20;;;;;;5042425;28;20501;-71
2021/03/12 10:50:38;;;;;;;2.60;0.90;;;9.70;65.80;;;;;;5031978;28;20450;-72
2021/03/12 10:53:07;;;;;;;2.30;1.50;;;9.50;66.30;;;;;;5030408;28;21167;-71
2021/03/12 10:55:42;;;;;;;4.03;1.67;;;9.70;67.90;;;;;;5030809;28;20429;-71
2021/03/12 10:58:28;;;;;;;2.67;1.07;;;9.70;67.20;;;;;;5043593;28;20471;-71
2021/03/12 11:01:30;;;;;;;1.80;0.87;;;9.50;67.20;;;;;;5052397;28;20432;-71
2021/03/12 11:04:03;;;;;;;6.47;1.10;;;9.00;70.50;;;;;;5054968;28;20450;-70
2021/03/12 11:06:31;;;;;;;2.27;1.00;;;8.90;72.40;;;;;;5056356;28;20489;-70
2021/03/12 11:08:57;;;;;;;2.50;1.20;;;9.50;71.80;;;;;;5054282;28;20498;-70
2021/03/12 11:11:25;;;;;;;2.63;1.43;;;9.70;67.60;;;;;;5058705;28;20561;-71
2021/03/12 11:13:51;;;;;;;3.57;0.83;;;10.10;66.60;;;;;;5056621;28;20200;-71
2021/03/12 11:16:17;;;;;;;1.43;0.90;;;10.40;63.40;;;;;;5050087;28;20798;-70
2021/03/12 11:18:43;;;;;;;3.27;1.10;;;10.50;59.50;;;;;;5051141;28;20443;-70
2021/03/12 11:21:11;;;;;;;4.30;0.80;;;10.40;56.80;;;;;;5051941;28;20455;-70
2021/03/12 11:23:38;;;;;;;3.03;1.13;;;10.20;55.80;;;;;;5053211;28;20438;-69
2021/03/12 11:26:06;;;;;;;1.87;1.13;;;10.30;56.90;;;;;;5051507;28;20866;-70
2021/03/12 11:28:32;;;;;;;3.43;1.00;;;10.60;54.80;;;;;;5023752;28;20737;-71
2021/03/12 11:30:59;;;;;;;4.80;1.20;;;10.70;53.40;;;;;;5025425;28;20443;-69
2021/03/12 11:33:25;;;;;;;1.40;1.10;;;10.60;54.40;;;;;;5031114;28;20935;-69
2021/03/12 11:35:52;;;;;;;2.50;1.20;;;10.70;53.60;;;;;;5022822;28;20440;-69
2021/03/12 11:38:18;;;;;;;2.33;1.07;;;11.00;53.00;;;;;;5051982;28;20427;-70
2021/03/12 11:40:44;;;;;;;2.27;0.93;;;11.30;52.00;;;;;;5050763;28;20430;-69
2021/03/12 11:43:10;;;;;;;2.67;1.03;;;11.60;51.70;;;;;;5050318;28;20446;-69
2021/03/12 11:45:36;;;;;;;3.73;1.20;;;11.50;51.30;;;;;;5048412;28;20184;-70
2021/03/12 11:48:03;;;;;;;2.50;1.00;;;11.20;45.90;;;;;;5050448;28;20419;-69
2021/03/12 11:50:30;;;;;;;2.23;0.90;;;11.40;48.50;;;;;;5049482;28;20442;-69
2021/03/12 11:52:57;;;;;;;2.23;1.10;;;11.50;47.10;;;;;;5029560;28;20523;-70
2021/03/12 11:55:23;;;;;;;5.00;1.00;;;11.50;48.20;;;;;;5029328;28;20909;-70
2021/03/12 11:57:49;;;;;;;3.70;1.63;;;11.10;48.90;;;;;;5031421;28;20482;-69
2021/03/12 12:00:16;;;;;;;4.10;1.43;;;10.90;49.50;;;;;;5033216;28;20598;-70
2021/03/12 12:02:45;;;;;;;2.90;1.10;;;10.30;51.80;;;;;;5042357;28;20434;-70
2021/03/12 12:05:11;;;;;;;3.10;1.00;;;10.30;52.20;;;;;;5054308;28;20469;-70
2021/03/12 12:07:38;;;;;;;4.07;1.03;;;10.20;53.00;;;;;;5060736;28;20471;-70
2021/03/12 12:10:05;;;;;;;3.43;1.20;;;10.00;53.20;;;;;;5052874;28;20419;-69
2021/03/12 12:12:31;;;;;;;2.13;1.10;;;9.80;50.50;;;;;;5050158;28;20549;-69
2021/03/12 12:14:57;;;;;;;2.87;1.10;;;9.90;50.30;;;;;;5049681;28;20419;-70
2021/03/12 12:17:23;;;;;;;3.10;0.93;;;10.10;48.10;;;;;;5050846;28;20655;-70
2021/03/12 12:19:49;;;;;;;1.37;0.77;;;10.00;47.40;;;;;;5035949;28;20440;-70
2021/03/12 12:22:16;;;;;;;2.07;1.17;;;10.30;47.00;;;;;;5029924;28;20463;-70
2021/03/12 12:24:43;;;;;;;2.03;1.10;;;10.60;45.00;;;;;;5031198;28;20173;-71
2021/03/12 12:27:10;;;;;;;2.50;1.27;;;10.90;44.60;;;;;;5032067;28;20536;-70
2021/03/12 12:29:36;;;;;;;2.77;1.10;;;11.20;43.80;;;;;;5031359;28;20531;-70
2021/03/12 12:32:02;;;;;;;3.20;1.27;;;11.50;44.60;;;;;;5031105;28;20415;-70
2021/03/12 12:34:28;;;;;;;4.30;1.13;;;11.60;43.50;;;;;;5028842;28;20420;-70
2021/03/12 12:36:55;;;;;;;2.43;1.30;;;11.30;44.70;;;;;;5023987;28;20426;-70
2021/03/12 12:39:21;;;;;;;1.93;0.90;;;11.10;45.10;;;;;;5035715;28;20503;-71
2021/03/12 12:41:47;;;;;;;7.23;1.10;;;11.00;44.90;;;;;;5035630;28;20809;-70
2021/03/12 12:44:14;;;;;;;5.23;0.83;;;10.90;44.90;;;;;;5032543;28;20455;-70
2021/03/12 12:46:41;;;;;;;1.87;0.90;;;10.70;45.00;;;;;;5032268;28;20459;-70
2021/03/12 12:49:07;;;;;;;1.87;1.10;;;10.70;46.20;;;;;;5049323;28;20449;-71
2021/03/12 12:51:34;;;;;;;3.63;1.10;;;10.80;46.10;;;;;;5054195;28;20816;-70
2021/03/12 12:54:00;;;;;;;6.30;1.00;;;10.50;47.10;;;;;;5053475;28;20466;-70
2021/03/12 12:56:26;;;;;;;4.30;0.90;;;10.60;46.50;;;;;;5053002;28;20433;-70
2021/03/12 12:58:52;;;;;;;3.70;1.43;;;10.40;46.30;;;;;;5056771;28;20418;-70
2021/03/12 13:01:19;;;;;;;4.83;0.90;;;10.20;47.90;;;;;;5056470;28;20652;-71
2021/03/12 13:03:45;;;;;;;2.50;1.00;;;10.10;49.40;;;;;;5057147;28;20446;-70
2021/03/12 13:06:11;;;;;;;2.93;1.27;;;10.10;50.90;;;;;;5046137;28;20458;-69